createdAt,value
2022-09-01T00:00:01.412Z,3.05
2022-09-01T00:02:29.225Z,4.10
2022-09-01T00:04:59.576Z,2.25
2022-09-01T00:07:32.584Z,3.35
2022-09-01T00:09:59.720Z,2.65
2022-09-01T00:12:26.591Z,1.83
2022-09-01T00:14:53.209Z,2.22
2022-09-01T00:17:19.897Z,2.03
2022-09-01T00:19:46.400Z,4.68
2022-09-01T00:22:12.919Z,2.53
2022-09-01T00:24:39.520Z,3.58
2022-09-01T00:27:06.480Z,3.83
2022-09-01T00:29:33.179Z,3.88
2022-09-01T00:31:59.771Z,2.75
2022-09-01T00:34:26.289Z,2.63
2022-09-01T00:36:52.830Z,2.67
2022-09-01T00:39:19.414Z,1.92
2022-09-01T00:41:50.231Z,2.03
2022-09-01T00:44:19.099Z,2.15
2022-09-01T00:46:50.404Z,2.78
2022-09-01T00:49:41.699Z,2.03
2022-09-01T00:52:11.070Z,4.00
2022-09-01T00:54:43.835Z,2.13
2022-09-01T00:57:16.101Z,2.20
2022-09-01T00:59:46.057Z,2.20
2022-09-01T01:02:12.976Z,2.08
2022-09-01T01:04:43.827Z,1.80
2022-09-01T01:07:11.530Z,3.05
2022-09-01T01:09:40.219Z,4.82
2022-09-01T01:12:07.560Z,1.77
2022-09-01T01:14:38.660Z,1.90
2022-09-01T01:17:05.690Z,6.10
2022-09-01T01:20:02.365Z,2.33
2022-09-01T01:23:02.894Z,2.80
2022-09-01T01:25:40.510Z,3.13
2022-09-01T01:28:12.791Z,4.85
2022-09-01T01:30:41.889Z,2.33
2022-09-01T01:33:09.180Z,2.67
2022-09-01T01:35:38.345Z,4.45
2022-09-01T01:38:07.661Z,2.13
2022-09-01T01:40:34.277Z,3.40
2022-09-01T01:43:02.058Z,2.25
2022-09-01T01:45:28.892Z,1.80
2022-09-01T01:47:56.596Z,4.25
2022-09-01T01:50:35.863Z,2.35
2022-09-01T01:53:04.322Z,2.47
2022-09-01T01:55:38.293Z,1.73
2022-09-01T01:58:05.309Z,2.05
2022-09-01T02:00:34.659Z,1.73
2022-09-01T02:03:01.386Z,5.68
2022-09-01T02:05:29.979Z,3.55
2022-09-01T02:07:59.585Z,3.15
2022-09-01T02:10:33.267Z,6.50
2022-09-01T02:13:04.413Z,1.98
2022-09-01T02:15:42.657Z,3.28
2022-09-01T02:18:09.820Z,2.03
2022-09-01T02:20:36.811Z,3.92
2022-09-01T02:23:09.442Z,3.00
2022-09-01T02:25:36.890Z,2.47
2022-09-01T02:28:04.144Z,3.25
2022-09-01T02:30:34.257Z,3.53
2022-09-01T02:33:00.891Z,1.73
2022-09-01T02:35:34.306Z,2.83
2022-09-01T02:38:01.761Z,2.25
2022-09-01T02:40:30.620Z,2.70
2022-09-01T02:42:59.906Z,1.73
2022-09-01T02:45:26.905Z,2.55
2022-09-01T02:47:54.306Z,3.53
2022-09-01T02:50:22.634Z,3.15
2022-09-01T02:52:50.112Z,3.10
2022-09-01T02:55:22.135Z,3.95
2022-09-01T02:57:49.535Z,2.97
2022-09-01T03:00:33.529Z,2.53
2022-09-01T03:03:01.117Z,1.88
2022-09-01T03:05:28.845Z,2.90
2022-09-01T03:08:04.517Z,3.15
2022-09-01T03:10:32.909Z,1.88
2022-09-01T03:13:00.633Z,2.00
2022-09-01T03:15:28.266Z,1.90
2022-09-01T03:17:54.943Z,1.88
2022-09-01T03:20:22.005Z,2.72
2022-09-01T03:22:50.668Z,4.55
2022-09-01T03:25:18.817Z,2.28
2022-09-01T03:27:45.771Z,1.67
2022-09-01T03:30:12.627Z,2.55
2022-09-01T03:32:39.900Z,2.25
2022-09-01T03:35:07.044Z,2.30
2022-09-01T03:37:33.640Z,2.53
2022-09-01T03:40:00.189Z,1.95
2022-09-01T03:42:29.735Z,2.08
2022-09-01T03:44:56.842Z,3.50
2022-09-01T03:47:24.249Z,4.35
2022-09-01T03:49:51.075Z,2.28
2022-09-01T03:52:18.165Z,1.40
2022-09-01T03:54:46.022Z,3.28
2022-09-01T03:57:13.973Z,3.35
2022-09-01T03:59:43.412Z,2.30
2022-09-01T04:02:11.194Z,2.83
2022-09-01T04:04:37.884Z,1.70
2022-09-01T04:07:04.523Z,2.33
2022-09-01T04:09:32.848Z,1.63
2022-09-01T04:11:59.398Z,2.03
2022-09-01T04:14:29.832Z,4.30
2022-09-01T04:17:15.924Z,2.80
2022-09-01T04:19:43.451Z,4.20
2022-09-01T04:22:14.406Z,3.75
2022-09-01T04:24:46.118Z,1.65
2022-09-01T04:27:14.048Z,1.60
2022-09-01T04:29:41.952Z,1.85
2022-09-01T04:32:12.974Z,3.05
2022-09-01T04:34:41.874Z,1.60
2022-09-01T04:37:08.869Z,2.00
2022-09-01T04:39:36.686Z,2.90
2022-09-01T04:42:06.376Z,1.70
2022-09-01T04:44:32.940Z,2.40
2022-09-01T04:47:00.547Z,1.88
2022-09-01T04:49:28.277Z,5.65
2022-09-01T04:51:54.867Z,5.28
2022-09-01T04:54:22.789Z,2.35
2022-09-01T04:56:51.315Z,6.10
2022-09-01T04:59:20.456Z,2.83
2022-09-01T05:01:49.791Z,2.03
2022-09-01T05:04:18.097Z,2.33
2022-09-01T05:06:49.516Z,1.50
2022-09-01T05:09:17.525Z,1.50
2022-09-01T05:11:46.392Z,2.50
2022-09-01T05:14:14.067Z,3.90
2022-09-01T05:16:45.110Z,3.33
2022-09-01T05:19:14.999Z,2.00
2022-09-01T05:21:45.719Z,1.73
2022-09-01T05:24:15.271Z,3.33
2022-09-01T05:26:42.594Z,1.58
2022-09-01T05:29:13.471Z,2.85
2022-09-01T05:31:41.895Z,1.95
2022-09-01T05:34:10.588Z,4.55
2022-09-01T05:36:39.569Z,2.17
2022-09-01T05:39:06.669Z,3.72
2022-09-01T05:41:37.262Z,2.60
2022-09-01T05:44:08.247Z,2.42
2022-09-01T05:46:37.136Z,3.72
2022-09-01T05:49:03.846Z,2.28
2022-09-01T05:51:46.419Z,3.55
2022-09-01T05:54:23.395Z,3.20
2022-09-01T05:56:50.109Z,2.60
2022-09-01T05:59:25.415Z,3.88
2022-09-01T06:01:53.799Z,2.03
2022-09-01T06:04:21.052Z,2.90
2022-09-01T06:07:07.127Z,2.63
2022-09-01T06:09:39.532Z,2.30
2022-09-01T06:12:06.994Z,3.80
2022-09-01T06:14:34.061Z,3.70
2022-09-01T06:17:01.123Z,2.15
2022-09-01T06:19:29.079Z,2.10
2022-09-01T06:21:57.018Z,2.78
2022-09-01T06:24:23.706Z,2.22
2022-09-01T06:26:50.458Z,1.50
2022-09-01T06:29:17.064Z,2.22
2022-09-01T06:31:51.930Z,1.65
2022-09-01T06:34:18.769Z,1.55
2022-09-01T06:36:46.768Z,1.48
2022-09-01T06:39:20.032Z,1.63
2022-09-01T06:41:53.180Z,4.20
2022-09-01T06:44:23.222Z,2.67
2022-09-01T06:46:50.478Z,4.63
2022-09-01T06:49:17.206Z,3.10
2022-09-01T06:51:43.793Z,2.75
2022-09-01T06:54:14.835Z,3.10
2022-09-01T06:56:44.795Z,4.68
2022-09-01T06:59:18.058Z,2.67
2022-09-01T07:01:45.152Z,2.85
2022-09-01T07:04:13.334Z,2.45
2022-09-01T07:09:47.308Z,5.78
2022-09-01T07:12:29.702Z,2.15
2022-09-01T07:17:50.113Z,1.42
2022-09-01T07:20:25.372Z,2.60
2022-09-01T07:23:08.411Z,2.10
2022-09-01T07:26:01.017Z,1.42
2022-09-01T07:28:36.159Z,3.58
2022-09-01T07:33:54.462Z,1.40
2022-09-01T07:36:28.979Z,2.00
2022-09-01T07:44:29.602Z,1.67
2022-09-01T07:52:29.360Z,1.95
2022-09-01T07:54:56.084Z,2.67
2022-09-01T07:57:23.077Z,2.65
2022-09-01T07:59:51.843Z,2.83
2022-09-01T08:02:18.668Z,1.73
2022-09-01T08:04:46.158Z,1.42
2022-09-01T08:07:16.165Z,2.47
2022-09-01T08:09:44.238Z,1.92
2022-09-01T08:12:11.178Z,1.98
2022-09-01T08:14:37.737Z,1.98
2022-09-01T08:19:53.636Z,2.22
2022-09-01T08:22:24.219Z,1.00
2022-09-01T08:24:51.554Z,1.63
2022-09-01T08:27:18.416Z,1.92
2022-09-01T08:29:45.199Z,2.28
2022-09-01T08:32:12.030Z,1.30
2022-09-01T08:34:39.072Z,2.20
2022-09-01T08:37:06.793Z,1.50
2022-09-01T08:39:33.395Z,3.30
2022-09-01T08:41:59.995Z,3.75
2022-09-01T08:44:26.575Z,15.70
2022-09-01T08:46:57.897Z,3.10
2022-09-01T08:49:26.881Z,4.53
2022-09-01T08:51:56.776Z,4.82
2022-09-01T08:54:29.685Z,4.50
2022-09-01T08:57:01.054Z,11.88
2022-09-01T08:59:28.899Z,3.65
2022-09-01T09:02:00.283Z,3.85
2022-09-01T09:04:40.946Z,4.07
2022-09-01T09:07:15.055Z,2.88
2022-09-01T09:09:51.153Z,1.15
2022-09-01T09:12:29.537Z,4.85
2022-09-01T09:15:02.356Z,1.85
2022-09-01T09:17:34.615Z,8.82
2022-09-01T09:20:02.234Z,4.88
2022-09-01T09:22:29.139Z,2.85
2022-09-01T09:25:19.227Z,3.72
2022-09-01T09:27:47.693Z,1.20
2022-09-01T09:30:22.636Z,1.83
2022-09-01T09:35:42.193Z,0.95
2022-09-01T09:38:19.827Z,1.73
2022-09-01T09:41:16.367Z,1.27
2022-09-01T09:44:11.492Z,1.83
2022-09-01T09:46:39.837Z,2.83
2022-09-01T09:49:15.553Z,2.35
2022-09-01T09:51:49.513Z,0.93
2022-09-01T09:54:18.913Z,1.00
2022-09-01T09:56:46.247Z,3.00
2022-09-01T09:59:33.915Z,1.33
2022-09-01T10:02:18.808Z,1.63
2022-09-01T10:04:45.369Z,3.92
2022-09-01T10:07:30.808Z,1.65
2022-09-01T10:10:00.672Z,1.05
2022-09-01T10:12:29.333Z,5.43
2022-09-01T10:15:04.676Z,1.25
2022-09-01T10:17:43.546Z,3.50
2022-09-01T10:20:17.168Z,3.80
2022-09-01T10:22:44.819Z,2.72
2022-09-01T10:25:14.256Z,1.17
2022-09-01T10:27:43.486Z,1.05
2022-09-01T10:30:20.036Z,1.63
2022-09-01T10:32:54.321Z,5.13
2022-09-01T10:35:25.219Z,3.00
2022-09-01T10:37:52.296Z,1.98
2022-09-01T10:40:31.695Z,1.20
2022-09-01T10:43:05.402Z,3.28
2022-09-01T10:45:32.436Z,1.30
2022-09-01T10:48:30.583Z,1.23
2022-09-01T10:51:19.344Z,1.08
2022-09-01T10:53:51.218Z,2.95
2022-09-01T10:56:35.540Z,1.20
2022-09-01T11:01:52.920Z,0.85
2022-09-01T11:04:24.254Z,2.50
2022-09-01T11:10:11.131Z,1.67
2022-09-01T11:12:47.995Z,1.25
2022-09-01T11:15:14.537Z,1.70
2022-09-01T11:17:53.134Z,2.38
2022-09-01T11:20:39.356Z,1.98
2022-09-01T11:23:14.924Z,2.25
2022-09-01T11:25:48.524Z,2.08
2022-09-01T11:28:39.134Z,3.97
2022-09-01T11:31:06.215Z,1.33
2022-09-01T11:33:51.257Z,4.05
2022-09-01T11:36:36.535Z,1.58
2022-09-01T11:39:27.712Z,2.78
2022-09-01T11:41:59.676Z,2.13
2022-09-01T11:44:51.875Z,6.15
2022-09-01T11:47:21.194Z,2.70
2022-09-01T11:50:08.111Z,1.40
2022-09-01T11:52:37.875Z,3.30
2022-09-01T11:55:06.034Z,3.53
2022-09-01T11:57:34.314Z,4.47
2022-09-01T12:00:02.914Z,1.45
2022-09-01T12:02:36.640Z,0.93
2022-09-01T12:05:24.514Z,2.72
2022-09-01T12:07:51.100Z,3.65
2022-09-01T12:10:17.674Z,1.85
2022-09-01T12:12:44.695Z,4.13
2022-09-01T12:15:19.338Z,2.65
2022-09-01T12:17:46.375Z,2.10
2022-09-01T12:20:30.038Z,0.75
2022-09-01T12:22:57.914Z,0.80
2022-09-01T12:25:29.274Z,1.73
2022-09-01T12:27:56.474Z,0.95
2022-09-01T12:30:23.594Z,3.33
2022-09-01T12:32:50.411Z,1.60
2022-09-01T12:35:20.575Z,2.97
2022-09-01T12:37:47.174Z,1.20
2022-09-01T12:40:24.558Z,1.10
2022-09-01T12:42:52.255Z,1.17
2022-09-01T12:45:37.278Z,1.17
2022-09-01T12:48:03.979Z,1.83
2022-09-01T12:50:31.015Z,4.00
2022-09-01T12:53:02.143Z,1.38
2022-09-01T12:58:21.197Z,3.13
2022-09-01T13:01:01.660Z,1.80
2022-09-01T13:03:29.715Z,0.93
2022-09-01T13:06:01.074Z,1.83
2022-09-01T13:08:37.783Z,2.53
2022-09-01T13:11:06.635Z,3.80
2022-09-01T13:13:35.715Z,3.40
2022-09-01T13:16:08.654Z,1.08
2022-09-01T13:19:10.663Z,2.38
2022-09-01T13:21:22.020Z,1.25
2022-09-01T13:23:50.647Z,5.95
2022-09-01T13:26:17.614Z,1.10
2022-09-01T13:28:46.079Z,0.80
2022-09-01T13:31:29.546Z,3.35
2022-09-01T13:34:23.468Z,4.82
2022-09-01T13:36:47.336Z,2.05
2022-09-01T13:39:16.914Z,1.25
2022-09-01T13:41:45.394Z,1.08
2022-09-01T13:44:12.074Z,0.63
2022-09-01T13:52:13.048Z,2.58
2022-09-01T13:54:39.722Z,2.55
2022-09-01T13:57:06.402Z,3.95
2022-09-01T13:59:36.118Z,10.80
2022-09-01T14:02:02.783Z,4.07
2022-09-01T14:04:29.494Z,19.63
2022-09-01T14:06:56.505Z,48.95
2022-09-01T14:09:23.362Z,18.77
2022-09-01T14:11:52.482Z,39.08
2022-09-01T14:14:19.303Z,62.08
2022-09-01T14:16:46.478Z,19.15
2022-09-01T14:19:13.228Z,14.25
2022-09-01T14:21:39.988Z,7.55
2022-09-01T14:26:38.098Z,3.88
2022-09-01T14:29:04.649Z,3.00
2022-09-01T14:31:32.199Z,3.65
2022-09-01T14:33:58.837Z,3.72
2022-09-01T14:36:26.929Z,3.25
2022-09-01T14:38:54.248Z,1.90
2022-09-01T14:41:26.467Z,1.77
2022-09-01T14:43:57.535Z,3.03
2022-09-01T14:46:25.616Z,1.52
2022-09-01T14:48:52.341Z,7.90
2022-09-01T14:51:20.617Z,2.03
2022-09-01T14:53:47.189Z,4.45
2022-09-01T14:56:15.038Z,3.80
2022-09-01T14:58:45.227Z,2.33
2022-09-01T15:01:33.189Z,1.25
2022-09-01T15:03:59.163Z,2.60
2022-09-01T15:06:26.037Z,0.63
2022-09-01T15:08:52.618Z,2.00
2022-09-01T15:11:21.248Z,1.17
2022-09-01T15:13:47.828Z,5.10
2022-09-01T15:18:48.018Z,2.33
2022-09-01T15:21:21.337Z,1.98
2022-09-01T15:23:49.847Z,1.40
2022-09-01T15:26:17.148Z,3.17
2022-09-01T15:28:48.157Z,0.70
2022-09-01T15:31:16.541Z,0.93
2022-09-01T15:33:43.508Z,4.43
2022-09-01T15:36:15.089Z,2.65
2022-09-01T15:38:42.022Z,3.53
2022-09-01T15:41:08.696Z,2.38
2022-09-01T15:43:35.266Z,1.00
2022-09-01T15:46:04.188Z,2.55
2022-09-01T15:48:30.852Z,0.77
2022-09-01T15:51:26.536Z,1.40
2022-09-01T15:53:54.800Z,1.50
2022-09-01T15:56:21.802Z,1.13
2022-09-01T15:59:00.680Z,1.85
2022-09-01T16:01:29.599Z,0.93
2022-09-01T16:03:56.568Z,0.77
2022-09-01T16:06:23.641Z,2.70
2022-09-01T16:08:50.669Z,0.77
2022-09-01T16:11:17.290Z,0.70
2022-09-01T16:13:43.888Z,0.80
2022-09-01T16:16:10.513Z,1.30
2022-09-01T16:18:59.025Z,1.05
2022-09-01T16:21:42.318Z,1.38
2022-09-01T16:24:09.878Z,1.15
2022-09-01T16:26:37.326Z,7.60
2022-09-01T16:29:08.849Z,7.38
2022-09-01T16:31:39.462Z,2.63
2022-09-01T16:34:14.829Z,5.50
2022-09-01T16:36:48.278Z,5.47
2022-09-01T19:32:31.324Z,8.48
2022-09-01T19:34:59.864Z,6.90
2022-09-01T19:37:26.624Z,3.85
2022-09-01T19:39:54.589Z,6.97
2022-09-01T19:42:36.284Z,3.75
2022-09-01T19:45:12.015Z,3.03
2022-09-01T19:47:51.576Z,2.20
2022-09-01T19:50:21.433Z,3.03
2022-09-01T19:52:51.096Z,2.72
2022-09-01T19:55:30.429Z,1.55
2022-09-01T19:58:00.574Z,2.38
2022-09-01T20:00:33.684Z,1.65
2022-09-01T20:03:13.018Z,2.47
2022-09-01T20:05:50.586Z,5.13
2022-09-01T20:08:17.156Z,1.30
2022-09-01T20:10:56.600Z,1.23
2022-09-01T20:13:26.404Z,1.08
2022-09-01T20:16:25.265Z,1.20
2022-09-01T20:19:04.031Z,1.25
2022-09-01T20:21:31.504Z,1.15
2022-09-01T20:24:08.276Z,1.80
2022-09-01T20:26:37.437Z,1.05
2022-09-01T20:29:10.307Z,4.13
2022-09-01T20:31:39.720Z,0.98
2022-09-01T20:34:20.306Z,3.03
2022-09-01T20:36:49.503Z,1.92
2022-09-01T20:39:46.704Z,1.75
2022-09-01T20:42:19.863Z,2.58
2022-09-01T20:44:52.583Z,1.20
2022-09-01T20:47:19.565Z,3.88
2022-09-01T20:49:46.122Z,1.23
2022-09-01T20:52:30.645Z,2.40
2022-09-01T20:55:08.912Z,2.42
2022-09-01T20:57:35.408Z,0.80
2022-09-01T21:00:09.652Z,0.80
2022-09-01T21:02:39.081Z,1.02
2022-09-01T21:05:11.932Z,2.83
2022-09-01T21:07:48.944Z,1.92
2022-09-01T21:10:24.756Z,1.05
2022-09-01T21:12:52.733Z,1.67
2022-09-01T21:15:19.251Z,4.00
2022-09-01T21:17:58.601Z,2.40
2022-09-01T21:20:54.424Z,1.58
2022-09-01T21:23:21.211Z,1.20
2022-09-01T21:25:48.452Z,0.93
2022-09-01T21:28:20.281Z,1.58
2022-09-01T21:30:54.477Z,0.80
2022-09-01T21:33:22.024Z,4.20
2022-09-01T21:35:48.684Z,1.00
2022-09-01T21:38:15.254Z,1.40
2022-09-01T21:40:42.450Z,1.20
2022-09-01T21:43:14.541Z,1.35
2022-09-01T21:45:41.200Z,2.13
2022-09-01T21:48:07.824Z,1.60
2022-09-01T21:50:35.653Z,1.75
2022-09-01T21:53:02.174Z,2.80
2022-09-01T21:55:28.917Z,1.98
2022-09-01T21:57:55.563Z,1.77
2022-09-01T22:00:24.213Z,2.53
2022-09-01T22:02:50.811Z,1.20
2022-09-01T22:05:17.493Z,4.85
2022-09-01T22:07:45.473Z,0.80
2022-09-01T22:10:13.698Z,2.40
2022-09-01T22:12:41.723Z,1.15
2022-09-01T22:15:09.502Z,2.03
2022-09-01T22:17:36.284Z,1.40
2022-09-01T22:20:04.123Z,0.95
2022-09-01T22:22:31.973Z,0.70
2022-09-01T22:24:58.644Z,1.95
2022-09-01T22:27:25.424Z,1.20
2022-09-01T22:29:52.324Z,0.80
2022-09-01T22:32:19.084Z,1.40
2022-09-01T22:34:45.625Z,0.90
2022-09-01T22:37:12.100Z,0.77
2022-09-01T22:39:38.643Z,1.25
2022-09-01T22:42:05.418Z,1.35
2022-09-01T22:44:31.923Z,2.42
2022-09-01T22:46:58.433Z,0.70
2022-09-01T22:49:25.013Z,0.80
2022-09-01T22:51:51.769Z,2.33
2022-09-01T22:54:18.305Z,1.30
2022-09-01T22:56:45.285Z,0.95
2022-09-01T22:59:13.327Z,1.15
2022-09-01T23:01:42.575Z,1.98
2022-09-01T23:04:10.852Z,1.08
2022-09-01T23:06:45.190Z,1.88
2022-09-01T23:09:11.955Z,1.52
2022-09-01T23:11:38.464Z,1.10
2022-09-01T23:14:05.354Z,1.77
2022-09-01T23:16:32.372Z,1.55
2022-09-01T23:18:59.175Z,0.80
2022-09-01T23:21:27.627Z,2.13
2022-09-01T23:23:58.526Z,1.48
2022-09-01T23:26:26.137Z,3.00
2022-09-01T23:28:52.770Z,0.90
2022-09-01T23:31:21.374Z,1.00
2022-09-01T23:33:49.082Z,1.23
2022-09-01T23:36:18.875Z,1.33
2022-09-01T23:38:46.353Z,2.72
2022-09-01T23:41:14.817Z,0.80
2022-09-01T23:43:42.305Z,2.20
2022-09-01T23:46:16.086Z,3.38
2022-09-01T23:48:42.755Z,1.48
2022-09-01T23:51:10.416Z,1.20
2022-09-01T23:53:38.575Z,2.50
2022-09-01T23:56:09.266Z,0.85
2022-09-01T23:58:35.974Z,1.83
